Time;durP1;ratioP1;P1;durP2;ratioP2;P2;SDS_P1;SDS_P2;PMS_P1;PMS_P2;Temp;Humidity;BMP_temperature;BMP_pressure;BME280_temperature;BME280_humidity;BME280_pressure;Samples;Min_cycle;Max_cycle;Signal;HPM_P1;HPM_P2
2021/12/10 00:01:36;;;;;;;0.60;0.40;;;2.90;99.90;;;;;;5035222;28;20459;-59
2021/12/10 00:04:05;;;;;;;2.63;0.40;;;2.80;99.90;;;;;;5035610;28;20463;-58
2021/12/10 00:06:37;;;;;;;1.00;0.30;;;2.80;99.90;;;;;;5036840;28;20510;-59
2021/12/10 00:09:08;;;;;;;1.00;0.20;;;2.80;99.90;;;;;;5038541;28;20946;-58
2021/12/10 00:11:39;;;;;;;2.10;0.40;;;2.80;99.90;;;;;;5038296;28;20531;-59
2021/12/10 00:14:07;;;;;;;0.47;0.20;;;2.70;99.90;;;;;;5036782;28;20492;-59
2021/12/10 00:16:35;;;;;;;0.93;0.30;;;2.70;99.90;;;;;;5037785;28;20482;-58
2021/12/10 00:19:15;;;;;;;1.10;0.30;;;2.60;99.90;;;;;;5038636;28;20515;-59
2021/12/10 00:21:43;;;;;;;2.43;0.40;;;2.70;99.90;;;;;;5038120;28;20448;-58
2021/12/10 00:24:16;;;;;;;0.63;0.30;;;2.60;99.90;;;;;;5037448;28;20926;-58
2021/12/10 00:26:43;;;;;;;0.53;0.30;;;2.60;99.90;;;;;;5038252;28;20448;-58
2021/12/10 00:29:15;;;;;;;0.50;0.30;;;2.50;99.90;;;;;;5036946;28;20955;-59
2021/12/10 00:31:48;;;;;;;0.70;0.33;;;2.50;99.90;;;;;;5035579;28;20452;-59
2021/12/10 00:34:25;;;;;;;0.93;0.30;;;2.50;99.90;;;;;;5035541;28;20517;-59
2021/12/10 00:36:56;;;;;;;3.10;0.40;;;2.50;99.90;;;;;;5035637;28;20591;-59
2021/12/10 00:39:27;;;;;;;0.53;0.30;;;2.50;99.90;;;;;;5036333;28;20549;-59
2021/12/10 00:41:57;;;;;;;2.10;0.30;;;2.50;99.90;;;;;;5036254;28;20547;-59
2021/12/10 00:44:24;;;;;;;0.90;0.30;;;2.60;99.90;;;;;;5035512;28;20486;-59
2021/12/10 00:46:52;;;;;;;0.93;0.33;;;2.50;99.90;;;;;;5035771;28;20472;-59
2021/12/10 00:49:20;;;;;;;0.53;0.23;;;2.50;99.90;;;;;;5035935;28;20539;-59
2021/12/10 00:51:49;;;;;;;0.60;0.30;;;2.40;99.90;;;;;;5035465;28;20479;-59
2021/12/10 00:54:17;;;;;;;0.30;0.20;;;2.40;99.90;;;;;;5036039;28;20492;-59
2021/12/10 00:56:46;;;;;;;1.27;0.30;;;2.30;99.90;;;;;;5034619;28;20779;-59
2021/12/10 00:59:14;;;;;;;0.50;0.27;;;2.30;99.90;;;;;;5035202;28;20551;-59
2021/12/10 01:01:42;;;;;;;1.20;0.30;;;2.20;99.90;;;;;;5035112;28;20891;-59
2021/12/10 01:04:11;;;;;;;0.83;0.30;;;2.20;99.90;;;;;;5033878;28;20543;-59
2021/12/10 01:06:40;;;;;;;1.40;0.30;;;2.20;99.90;;;;;;5033787;28;20539;-59
2021/12/10 01:09:11;;;;;;;0.70;0.40;;;2.20;99.90;;;;;;5034951;28;20550;-59
2021/12/10 01:11:41;;;;;;;1.57;0.30;;;2.20;99.90;;;;;;5035240;28;20600;-59
2021/12/10 01:14:19;;;;;;;1.70;0.40;;;2.10;99.90;;;;;;5035431;28;20475;-58
2021/12/10 01:25:13;;;;;;;0.53;0.20;;;2.20;99.90;;;;;;5037005;28;20486;-59
2021/12/10 01:27:44;;;;;;;2.20;0.30;;;2.20;99.90;;;;;;5037025;28;20436;-59
2021/12/10 01:30:22;;;;;;;0.53;0.30;;;2.20;99.90;;;;;;5037458;28;20527;-59
2021/12/10 01:32:52;;;;;;;0.43;0.20;;;2.10;99.90;;;;;;5036508;28;20529;-59
2021/12/10 01:35:22;;;;;;;2.00;0.30;;;2.10;99.90;;;;;;5036735;28;20487;-58
2021/12/10 01:37:50;;;;;;;5.17;1.03;;;2.10;99.90;;;;;;5036728;28;20575;-59
2021/12/10 01:40:20;;;;;;;0.40;0.23;;;2.10;99.90;;;;;;5036519;28;20820;-59
2021/12/10 01:42:51;;;;;;;3.70;0.30;;;2.00;99.90;;;;;;5036196;28;20567;-59
2021/12/10 01:45:22;;;;;;;1.50;0.60;;;2.10;99.90;;;;;;5035988;28;20452;-59
2021/12/10 01:47:54;;;;;;;1.53;0.20;;;2.10;99.90;;;;;;5036502;28;20512;-59
2021/12/10 01:50:22;;;;;;;0.30;0.20;;;2.00;99.90;;;;;;5036881;28;20542;-59
2021/12/10 01:52:54;;;;;;;0.80;0.20;;;2.10;99.90;;;;;;5035921;28;20551;-59
2021/12/10 01:55:22;;;;;;;2.30;0.30;;;2.00;99.90;;;;;;5036400;28;20520;-59
2021/12/10 01:57:49;;;;;;;0.77;0.23;;;2.00;99.90;;;;;;5036417;28;20498;-59
2021/12/10 02:00:20;;;;;;;0.60;0.30;;;2.00;99.90;;;;;;5036450;28;20547;-60
2021/12/10 02:02:48;;;;;;;2.07;0.30;;;2.00;99.90;;;;;;5036102;28;20555;-59
2021/12/10 02:05:16;;;;;;;0.33;0.20;;;2.10;99.90;;;;;;5035557;28;20531;-58
2021/12/10 02:07:44;;;;;;;0.60;0.30;;;2.00;99.90;;;;;;5035849;28;20879;-59
2021/12/10 02:10:14;;;;;;;1.13;0.20;;;2.00;99.90;;;;;;5036082;28;20535;-59
2021/12/10 02:12:41;;;;;;;0.90;0.23;;;2.00;99.90;;;;;;5035746;28;20939;-59
2021/12/10 02:15:11;;;;;;;0.40;0.20;;;2.00;99.90;;;;;;5036158;28;20484;-59
2021/12/10 02:17:43;;;;;;;0.37;0.20;;;2.00;99.90;;;;;;5036135;28;20484;-59
2021/12/10 02:20:13;;;;;;;1.43;0.10;;;2.00;99.90;;;;;;5036213;28;20555;-59
2021/12/10 02:22:43;;;;;;;0.40;0.20;;;2.00;99.90;;;;;;5035588;28;20813;-59
2021/12/10 02:25:15;;;;;;;0.40;0.20;;;2.00;99.90;;;;;;5034265;28;20448;-59
2021/12/10 02:27:42;;;;;;;1.23;0.30;;;2.00;99.90;;;;;;5033796;28;20923;-59
2021/12/10 02:30:11;;;;;;;0.80;0.20;;;1.90;99.90;;;;;;5034555;28;20547;-59
2021/12/10 02:32:38;;;;;;;0.50;0.30;;;1.90;99.90;;;;;;5035220;28;20680;-59
2021/12/10 02:35:07;;;;;;;1.73;0.20;;;1.90;99.90;;;;;;5034195;28;20955;-59
2021/12/10 02:37:34;;;;;;;0.30;0.20;;;1.90;99.90;;;;;;5034588;28;20454;-59
2021/12/10 02:40:04;;;;;;;0.93;0.20;;;1.90;99.90;;;;;;5035203;28;20538;-60
2021/12/10 02:42:31;;;;;;;2.77;0.27;;;1.80;99.90;;;;;;5034695;28;20535;-60
2021/12/10 02:44:58;;;;;;;0.40;0.20;;;1.80;99.90;;;;;;5035004;28;20458;-59
2021/12/10 02:47:25;;;;;;;0.40;0.20;;;1.80;99.90;;;;;;5035559;28;20914;-60
2021/12/10 02:49:52;;;;;;;0.50;0.20;;;1.70;99.90;;;;;;5035877;28;20538;-59
2021/12/10 02:52:21;;;;;;;4.43;0.20;;;1.70;99.90;;;;;;5035868;28;20918;-60
2021/12/10 02:54:48;;;;;;;1.30;0.20;;;1.70;99.90;;;;;;5035852;28;20558;-59
2021/12/10 02:57:18;;;;;;;3.27;0.47;;;1.70;99.90;;;;;;5036239;28;20986;-59
2021/12/10 02:59:45;;;;;;;3.90;0.20;;;1.70;99.90;;;;;;5039818;28;20494;-59
2021/12/10 03:02:15;;;;;;;0.30;0.20;;;1.70;99.90;;;;;;5039694;28;20494;-59
2021/12/10 03:04:43;;;;;;;0.70;0.37;;;1.70;99.90;;;;;;5039986;28;20716;-59
2021/12/10 03:07:14;;;;;;;7.37;0.50;;;1.70;99.90;;;;;;5039333;28;20440;-59
2021/12/10 03:09:43;;;;;;;3.23;0.40;;;1.60;99.90;;;;;;5039584;28;20511;-59
2021/12/10 03:12:12;;;;;;;7.10;0.30;;;1.60;99.90;;;;;;5039016;28;20542;-58
2021/12/10 03:14:42;;;;;;;0.40;0.10;;;1.60;99.90;;;;;;5038769;28;20547;-59
2021/12/10 03:17:14;;;;;;;0.50;0.20;;;1.60;99.90;;;;;;5039207;28;20483;-59
2021/12/10 03:19:41;;;;;;;0.90;0.20;;;1.60;99.90;;;;;;5039180;28;20487;-59
2021/12/10 03:22:08;;;;;;;0.50;0.30;;;1.50;99.90;;;;;;5038497;28;20817;-59
2021/12/10 03:24:35;;;;;;;0.90;0.30;;;1.50;99.90;;;;;;5037519;28;20492;-59
2021/12/10 03:27:06;;;;;;;0.40;0.20;;;1.50;99.90;;;;;;5036373;28;20531;-59
2021/12/10 03:29:36;;;;;;;0.50;0.20;;;1.50;99.90;;;;;;5036530;28;20930;-59
2021/12/10 03:32:09;;;;;;;2.60;0.30;;;1.50;99.90;;;;;;5036301;28;20547;-59
2021/12/10 03:34:36;;;;;;;0.50;0.20;;;1.50;99.90;;;;;;5036260;28;20543;-58
2021/12/10 03:37:04;;;;;;;1.37;0.40;;;1.50;99.90;;;;;;5036442;28;20499;-59
2021/12/10 03:39:31;;;;;;;0.37;0.20;;;1.50;99.90;;;;;;5037184;28;20483;-59
2021/12/10 03:42:00;;;;;;;0.63;0.27;;;1.40;99.90;;;;;;5038114;28;20827;-58
2021/12/10 03:44:28;;;;;;;1.10;0.30;;;1.40;99.90;;;;;;5037006;28;20500;-59
2021/12/10 03:46:56;;;;;;;3.70;0.20;;;1.40;99.90;;;;;;5036523;28;20551;-58
2021/12/10 03:49:25;;;;;;;0.40;0.23;;;1.40;99.90;;;;;;5038723;28;20547;-59
2021/12/10 03:51:52;;;;;;;0.40;0.20;;;1.30;99.90;;;;;;5038140;28;20534;-59
2021/12/10 03:54:19;;;;;;;0.70;0.20;;;1.30;99.90;;;;;;5038586;28;20783;-58
2021/12/10 03:56:47;;;;;;;1.33;0.30;;;1.30;99.90;;;;;;5038346;28;20448;-59
2021/12/10 03:59:16;;;;;;;0.80;0.40;;;1.20;99.90;;;;;;5038693;28;20554;-59
2021/12/10 04:01:48;;;;;;;0.80;0.40;;;1.20;99.90;;;;;;5038227;28;20491;-59
2021/12/10 04:04:17;;;;;;;0.60;0.20;;;1.20;99.90;;;;;;5038394;28;20554;-59
2021/12/10 04:06:46;;;;;;;0.60;0.40;;;1.10;99.90;;;;;;5038485;28;20506;-59
2021/12/10 04:09:13;;;;;;;0.30;0.20;;;1.20;99.90;;;;;;5036279;28;20543;-59
2021/12/10 04:11:41;;;;;;;1.37;0.20;;;1.10;99.90;;;;;;5035624;28;20448;-59
2021/12/10 04:14:09;;;;;;;0.57;0.30;;;1.10;99.90;;;;;;5037334;28;20954;-59
2021/12/10 04:16:36;;;;;;;0.47;0.30;;;1.10;99.90;;;;;;5037829;28;20817;-59
2021/12/10 04:19:06;;;;;;;6.53;0.60;;;1.10;99.90;;;;;;5038298;28;20579;-59
2021/12/10 04:21:39;;;;;;;0.63;0.40;;;1.00;99.90;;;;;;5038858;28;20468;-58
2021/12/10 04:24:09;;;;;;;0.30;0.20;;;1.00;99.90;;;;;;5037527;28;20551;-59
2021/12/10 04:26:36;;;;;;;0.40;0.20;;;1.00;99.90;;;;;;5037586;28;20630;-58
2021/12/10 04:29:21;;;;;;;0.80;0.40;;;1.00;99.90;;;;;;5038003;28;20555;-47
2021/12/10 04:31:52;;;;;;;0.77;0.33;;;1.00;99.90;;;;;;5037291;28;20455;-47
2021/12/10 04:34:20;;;;;;;5.40;0.43;;;1.00;99.90;;;;;;5038056;28;20835;-47
2021/12/10 04:36:47;;;;;;;0.97;0.37;;;1.00;99.90;;;;;;5037168;28;20455;-50
2021/12/10 04:39:15;;;;;;;1.10;0.20;;;1.00;99.90;;;;;;5037380;28;20585;-50
2021/12/10 04:41:42;;;;;;;0.63;0.30;;;0.90;99.90;;;;;;5037766;28;20464;-53
2021/12/10 04:44:10;;;;;;;1.37;0.30;;;0.90;99.90;;;;;;5037989;28;20547;-54
2021/12/10 04:46:37;;;;;;;1.13;0.30;;;0.90;99.90;;;;;;5037794;28;20491;-53
2021/12/10 04:49:08;;;;;;;0.83;0.37;;;0.90;99.90;;;;;;5037851;28;20539;-49
2021/12/10 04:51:38;;;;;;;5.13;0.40;;;0.90;99.90;;;;;;5037714;28;20546;-49
2021/12/10 04:54:07;;;;;;;1.27;0.30;;;0.90;99.90;;;;;;5037279;28;20563;-50
2021/12/10 04:56:37;;;;;;;5.70;0.40;;;0.90;99.90;;;;;;5037272;28;20452;-51
2021/12/10 04:59:07;;;;;;;1.10;0.40;;;0.80;99.90;;;;;;5036937;28;20551;-49
2021/12/10 05:01:34;;;;;;;0.60;0.40;;;0.80;99.90;;;;;;5037107;28;20542;-51
2021/12/10 05:04:01;;;;;;;0.80;0.40;;;0.70;99.90;;;;;;5036980;28;20488;-48
2021/12/10 05:06:29;;;;;;;1.30;0.43;;;0.70;99.90;;;;;;5036830;28;20449;-50
2021/12/10 05:08:56;;;;;;;1.27;0.50;;;0.70;99.90;;;;;;5037578;28;20550;-48
2021/12/10 05:11:23;;;;;;;1.03;0.40;;;0.70;99.90;;;;;;5037357;28;20526;-51
2021/12/10 05:13:52;;;;;;;0.50;0.30;;;0.70;99.90;;;;;;5037070;28;20499;-50
2021/12/10 05:16:24;;;;;;;0.90;0.40;;;0.70;99.90;;;;;;5037344;28;20524;-50
2021/12/10 05:18:56;;;;;;;3.27;0.50;;;0.70;99.90;;;;;;5036704;28;20586;-46
2021/12/10 05:21:24;;;;;;;0.60;0.40;;;0.70;99.90;;;;;;5036430;28;20488;-46
2021/12/10 05:23:51;;;;;;;2.50;0.60;;;0.70;99.90;;;;;;5036717;28;20543;-48
2021/12/10 05:26:18;;;;;;;1.00;0.60;;;0.70;99.90;;;;;;5035951;28;20539;-48
2021/12/10 05:28:45;;;;;;;3.60;0.50;;;0.70;99.90;;;;;;5036138;28;20546;-51
2021/12/10 05:31:14;;;;;;;1.43;0.50;;;0.70;99.90;;;;;;5036705;28;20531;-52
2021/12/10 05:33:41;;;;;;;0.87;0.50;;;0.80;99.90;;;;;;5036189;28;20502;-51
2021/12/10 05:36:08;;;;;;;1.13;0.53;;;0.80;99.90;;;;;;5036293;28;20906;-47
2021/12/10 05:38:36;;;;;;;2.00;0.50;;;0.80;99.90;;;;;;5035871;28;20488;-51
2021/12/10 05:41:06;;;;;;;2.43;0.40;;;0.80;99.90;;;;;;5035964;28;20909;-48
2021/12/10 05:43:33;;;;;;;1.00;0.40;;;0.70;99.90;;;;;;5035465;28;20774;-50
2021/12/10 05:46:00;;;;;;;1.70;0.60;;;0.70;99.90;;;;;;5035441;28;20535;-47
2021/12/10 05:48:29;;;;;;;0.50;0.40;;;0.70;99.90;;;;;;5034559;28;20472;-47
2021/12/10 05:50:56;;;;;;;0.70;0.40;;;0.70;99.90;;;;;;5036101;28;20533;-50
2021/12/10 05:53:23;;;;;;;7.97;0.80;;;0.70;99.90;;;;;;5034515;28;20495;-52
2021/12/10 05:55:51;;;;;;;1.03;0.50;;;0.70;99.90;;;;;;5035132;28;20503;-50
2021/12/10 05:58:19;;;;;;;0.90;0.60;;;0.70;99.90;;;;;;5034518;28;20837;-52
2021/12/10 06:00:49;;;;;;;1.43;0.60;;;0.60;99.90;;;;;;5035326;28;20456;-48
2021/12/10 06:03:17;;;;;;;0.87;0.40;;;0.60;99.90;;;;;;5033532;28;20542;-50
2021/12/10 06:05:48;;;;;;;0.80;0.60;;;0.60;99.90;;;;;;5034724;28;20851;-49
2021/12/10 06:08:16;;;;;;;2.83;1.27;;;0.70;99.90;;;;;;5034785;28;20487;-47
2021/12/10 06:10:45;;;;;;;0.77;0.40;;;0.70;99.90;;;;;;5035099;28;20543;-50
2021/12/10 06:13:12;;;;;;;6.83;0.60;;;0.70;99.90;;;;;;5033468;28;20536;-49
2021/12/10 06:15:40;;;;;;;0.97;0.50;;;0.60;99.90;;;;;;5032360;28;20444;-49
2021/12/10 06:18:08;;;;;;;2.97;0.50;;;0.60;99.90;;;;;;5033097;28;20515;-46
2021/12/10 06:20:39;;;;;;;1.00;0.57;;;0.60;99.90;;;;;;5033283;28;20480;-48
2021/12/10 06:23:08;;;;;;;1.47;0.70;;;0.60;99.90;;;;;;5033663;28;20818;-47
2021/12/10 06:25:36;;;;;;;1.23;0.50;;;0.60;99.90;;;;;;5031168;28;20816;-50
2021/12/10 06:28:03;;;;;;;1.40;0.50;;;0.60;99.90;;;;;;5030212;28;20897;-54
2021/12/10 06:30:33;;;;;;;2.30;0.57;;;0.60;99.90;;;;;;5031967;28;20518;-49
2021/12/10 06:33:02;;;;;;;1.60;0.60;;;0.60;99.90;;;;;;5032403;28;20594;-54
2021/12/10 06:35:31;;;;;;;1.20;0.60;;;0.60;99.90;;;;;;5030525;28;20448;-53
2021/12/10 06:37:59;;;;;;;0.60;0.33;;;0.60;99.90;;;;;;5032610;28;21025;-54
2021/12/10 06:40:32;;;;;;;1.10;0.43;;;0.60;99.90;;;;;;5033599;28;20751;-53
2021/12/10 06:43:00;;;;;;;1.90;0.60;;;0.60;99.90;;;;;;5032541;28;20564;-51
2021/12/10 06:45:29;;;;;;;3.90;0.80;;;0.60;99.90;;;;;;5034005;28;20448;-53
2021/12/10 06:48:01;;;;;;;1.53;0.50;;;0.60;99.90;;;;;;5032598;28;20559;-51
2021/12/10 06:50:31;;;;;;;1.80;0.60;;;0.60;99.90;;;;;;5032870;28;20440;-54
2021/12/10 06:53:01;;;;;;;3.43;0.70;;;0.60;99.90;;;;;;5032781;28;20492;-53
2021/12/10 06:55:31;;;;;;;1.07;0.50;;;0.60;99.90;;;;;;5032283;28;20946;-56
2021/12/10 06:57:58;;;;;;;1.60;0.77;;;0.60;99.90;;;;;;5032316;28;20584;-54
2021/12/10 07:00:40;;;;;;;2.63;0.70;;;0.60;99.90;;;;;;5031215;28;20545;-55
2021/12/10 07:03:11;;;;;;;14.83;0.70;;;0.60;99.90;;;;;;5028346;28;20468;-55
2021/12/10 07:05:38;;;;;;;0.90;0.40;;;0.60;99.90;;;;;;5031743;28;20480;-52
2021/12/10 07:08:08;;;;;;;0.90;0.50;;;0.60;99.90;;;;;;5031372;28;20809;-50
2021/12/10 07:10:36;;;;;;;1.10;0.60;;;0.50;99.90;;;;;;5023297;28;20531;-50
2021/12/10 07:13:06;;;;;;;4.77;0.60;;;0.50;99.90;;;;;;5026130;28;20563;-53
2021/12/10 07:15:34;;;;;;;7.13;0.90;;;0.60;99.90;;;;;;5014915;28;20774;-53
2021/12/10 07:18:02;;;;;;;1.10;0.50;;;0.90;99.90;;;;;;5020159;28;20551;-48
2021/12/10 07:20:29;;;;;;;1.60;0.97;;;1.30;99.90;;;;;;5027140;28;20440;-53
2021/12/10 07:22:56;;;;;;;1.13;0.70;;;1.80;99.90;;;;;;5016857;28;20741;-53
2021/12/10 07:25:29;;;;;;;4.20;0.83;;;2.00;99.90;;;;;;5026708;28;20524;-48
2021/12/10 07:27:57;;;;;;;2.10;1.00;;;2.20;99.90;;;;;;5015999;28;20460;-48
2021/12/10 07:30:29;;;;;;;2.43;0.73;;;2.00;99.90;;;;;;5022264;28;20547;-49
2021/12/10 07:32:59;;;;;;;4.30;0.73;;;2.00;99.90;;;;;;5018161;28;20432;-52
2021/12/10 07:35:26;;;;;;;1.13;0.63;;;2.10;99.90;;;;;;5026793;28;20419;-52
2021/12/10 07:37:54;;;;;;;1.17;0.60;;;2.80;99.90;;;;;;5015432;28;20480;-53
2021/12/10 07:40:24;;;;;;;2.07;0.60;;;2.60;99.90;;;;;;5023599;28;20673;-49
2021/12/10 07:42:53;;;;;;;2.47;1.00;;;2.50;99.90;;;;;;5023449;28;20750;-53
2021/12/10 07:45:23;;;;;;;5.77;0.77;;;2.20;99.90;;;;;;5016630;28;20477;-51
2021/12/10 07:47:52;;;;;;;3.27;0.80;;;1.90;99.90;;;;;;5027658;28;20540;-48
2021/12/10 07:50:23;;;;;;;2.00;0.90;;;1.70;99.90;;;;;;5020642;28;20455;-52
2021/12/10 07:52:54;;;;;;;4.40;0.90;;;1.50;99.90;;;;;;5021793;28;20453;-52
2021/12/10 07:55:23;;;;;;;0.93;0.57;;;1.50;99.90;;;;;;5031573;28;20837;-51
2021/12/10 07:57:51;;;;;;;1.37;0.87;;;1.40;99.90;;;;;;5035080;28;21045;-50
2021/12/10 08:00:20;;;;;;;3.83;0.60;;;1.40;99.90;;;;;;5028468;28;20480;-53
2021/12/10 08:02:50;;;;;;;2.63;0.80;;;2.10;99.90;;;;;;5026878;28;20462;-52
2021/12/10 08:05:18;;;;;;;2.30;0.90;;;1.90;99.90;;;;;;5019960;28;20449;-50
2021/12/10 08:07:46;;;;;;;0.70;0.40;;;1.80;99.90;;;;;;5036282;28;20448;-52
2021/12/10 08:10:15;;;;;;;1.00;0.60;;;1.70;99.90;;;;;;5029767;28;20528;-54
2021/12/10 08:12:43;;;;;;;1.60;0.53;;;2.10;99.90;;;;;;5026664;28;20474;-52
2021/12/10 08:15:10;;;;;;;1.40;0.40;;;2.50;99.90;;;;;;5021121;28;20480;-53
2021/12/10 08:17:38;;;;;;;1.40;0.57;;;2.30;99.90;;;;;;5032500;28;20803;-53
2021/12/10 08:20:09;;;;;;;1.37;0.70;;;2.10;99.90;;;;;;5022205;28;20968;-54
2021/12/10 08:22:36;;;;;;;1.10;0.57;;;2.00;99.90;;;;;;5027375;28;20473;-53
2021/12/10 08:25:05;;;;;;;1.27;0.60;;;1.90;99.90;;;;;;5029850;28;20954;-53
2021/12/10 08:27:32;;;;;;;5.93;0.40;;;1.80;99.90;;;;;;5027511;28;20548;-55
2021/12/10 08:30:03;;;;;;;2.47;0.57;;;1.80;99.90;;;;;;5030876;28;20540;-53
2021/12/10 08:32:31;;;;;;;1.27;0.60;;;1.80;99.90;;;;;;5034056;28;20445;-54
2021/12/10 08:34:58;;;;;;;0.60;0.50;;;1.80;99.90;;;;;;5023233;28;20828;-53
2021/12/10 08:37:26;;;;;;;0.70;0.40;;;2.00;99.90;;;;;;5030890;28;20539;-53
2021/12/10 08:39:53;;;;;;;1.00;0.60;;;2.90;99.90;;;;;;5020804;28;20519;-51
2021/12/10 08:42:20;;;;;;;1.80;0.80;;;3.40;99.90;;;;;;5026886;28;20458;-51
2021/12/10 08:44:50;;;;;;;2.20;1.17;;;3.00;99.90;;;;;;5034120;28;20296;-56
2021/12/10 08:47:17;;;;;;;6.67;1.37;;;3.10;99.90;;;;;;5020299;28;20455;-54
2021/12/10 08:49:44;;;;;;;2.03;0.70;;;2.80;99.90;;;;;;5031947;28;20424;-54
2021/12/10 08:52:14;;;;;;;1.27;0.70;;;2.60;99.90;;;;;;5023876;28;20505;-54
2021/12/10 08:54:43;;;;;;;1.57;0.70;;;2.60;99.90;;;;;;5023975;28;20543;-53
2021/12/10 08:57:11;;;;;;;1.27;0.70;;;2.50;99.90;;;;;;5016620;28;20549;-54
2021/12/10 08:59:41;;;;;;;1.93;0.67;;;2.50;99.90;;;;;;5032878;28;20872;-54
2021/12/10 09:02:10;;;;;;;1.53;0.70;;;2.50;99.90;;;;;;5033412;28;20451;-55
2021/12/10 09:04:39;;;;;;;1.20;0.70;;;2.60;99.90;;;;;;5034311;28;20539;-53
2021/12/10 09:07:09;;;;;;;1.03;0.47;;;2.70;99.90;;;;;;5032481;28;20819;-54
2021/12/10 09:09:39;;;;;;;1.83;0.90;;;2.50;99.90;;;;;;5034100;28;20524;-55
2021/12/10 09:12:13;;;;;;;0.90;0.50;;;2.40;99.90;;;;;;5017023;28;20492;-55
2021/12/10 09:14:45;;;;;;;0.87;0.60;;;2.50;99.90;;;;;;5034111;28;20623;-54
2021/12/10 09:17:20;;;;;;;0.73;0.50;;;2.50;99.90;;;;;;5034431;28;20475;-55
2021/12/10 09:19:48;;;;;;;1.50;0.60;;;2.50;99.90;;;;;;5032752;28;20844;-55
2021/12/10 09:22:17;;;;;;;1.57;0.43;;;2.60;99.90;;;;;;5032884;28;20557;-55
2021/12/10 09:24:45;;;;;;;3.47;0.50;;;2.50;99.90;;;;;;5034683;28;20466;-52
2021/12/10 09:27:15;;;;;;;0.50;0.40;;;2.50;99.90;;;;;;5034164;28;20448;-55
2021/12/10 09:29:45;;;;;;;0.70;0.30;;;2.40;99.90;;;;;;5033847;28;20490;-54
2021/12/10 09:32:16;;;;;;;1.70;0.50;;;2.40;99.90;;;;;;5034360;28;20419;-51
2021/12/10 09:34:44;;;;;;;0.70;0.40;;;2.50;99.90;;;;;;5034893;28;20547;-52
2021/12/10 09:37:12;;;;;;;1.80;0.50;;;2.50;99.90;;;;;;5032698;28;20738;-52
2021/12/10 09:39:39;;;;;;;0.80;0.50;;;2.60;99.90;;;;;;5034552;28;20524;-56
2021/12/10 09:42:11;;;;;;;0.67;0.40;;;2.60;99.90;;;;;;5034584;28;20467;-54
2021/12/10 09:44:40;;;;;;;1.07;0.40;;;2.60;99.90;;;;;;5033469;28;20749;-53
2021/12/10 09:47:11;;;;;;;1.10;0.30;;;2.60;99.90;;;;;;5033391;28;20472;-56
2021/12/10 09:49:38;;;;;;;0.80;0.40;;;2.60;99.90;;;;;;5034687;28;20440;-54
2021/12/10 09:52:08;;;;;;;2.37;0.30;;;2.70;99.90;;;;;;5033482;28;20566;-51
2021/12/10 09:54:36;;;;;;;2.20;0.40;;;2.80;99.90;;;;;;5030826;28;20533;-51
2021/12/10 09:57:11;;;;;;;1.20;0.40;;;2.80;99.90;;;;;;5034155;28;20921;-53
2021/12/10 09:59:43;;;;;;;1.40;0.30;;;2.80;99.90;;;;;;5032286;28;20615;-55
2021/12/10 10:02:11;;;;;;;0.80;0.40;;;2.90;99.90;;;;;;5025192;28;20420;-56
2021/12/10 10:04:45;;;;;;;0.50;0.27;;;3.00;99.90;;;;;;5026147;28;20462;-54
2021/12/10 10:07:15;;;;;;;0.80;0.40;;;2.90;99.90;;;;;;5016906;28;20425;-54
2021/12/10 10:09:48;;;;;;;0.40;0.20;;;2.90;99.90;;;;;;5030807;28;20459;-52
2021/12/10 10:12:20;;;;;;;1.20;0.27;;;3.10;99.90;;;;;;5034246;28;20442;-59
2021/12/10 10:14:49;;;;;;;1.00;0.30;;;3.30;99.90;;;;;;5020324;28;20821;-59
2021/12/10 10:17:23;;;;;;;0.97;0.40;;;3.30;99.90;;;;;;5029649;28;20892;-58
2021/12/10 10:19:52;;;;;;;1.63;0.40;;;3.20;99.90;;;;;;5019329;28;20457;-58
2021/12/10 10:22:21;;;;;;;0.50;0.30;;;3.20;99.90;;;;;;5023338;28;20441;-59
2021/12/10 10:24:50;;;;;;;0.70;0.30;;;3.20;99.90;;;;;;5026846;28;20537;-59
2021/12/10 10:27:20;;;;;;;1.50;0.37;;;3.20;99.90;;;;;;5027156;28;20440;-59
2021/12/10 10:29:54;;;;;;;0.60;0.30;;;3.10;99.90;;;;;;5018348;28;20556;-57
2021/12/10 10:32:27;;;;;;;0.77;0.40;;;3.20;99.90;;;;;;5024167;28;20845;-60
2021/12/10 10:35:01;;;;;;;0.70;0.30;;;3.20;99.90;;;;;;5023976;28;20444;-57
2021/12/10 10:37:30;;;;;;;0.40;0.27;;;3.20;99.90;;;;;;5029040;28;20455;-57
2021/12/10 10:40:00;;;;;;;0.67;0.30;;;3.30;99.90;;;;;;5028712;28;20486;-57
2021/12/10 10:42:30;;;;;;;0.50;0.20;;;3.30;99.90;;;;;;5024808;28;20420;-57
2021/12/10 10:45:05;;;;;;;0.50;0.30;;;3.30;99.90;;;;;;5022818;28;20460;-59
2021/12/10 10:47:35;;;;;;;2.63;0.60;;;3.40;99.90;;;;;;5023716;28;20444;-64
2021/12/10 10:50:13;;;;;;;0.90;0.40;;;3.50;99.90;;;;;;5026848;28;20423;-67
2021/12/10 10:52:46;;;;;;;0.70;0.30;;;3.60;99.90;;;;;;5025193;28;20448;-66
2021/12/10 10:55:22;;;;;;;0.67;0.40;;;3.70;99.90;;;;;;5018487;28;20965;-66
2021/12/10 10:57:56;;;;;;;0.40;0.20;;;3.70;99.90;;;;;;5021844;28;20589;-66
2021/12/10 11:00:32;;;;;;;0.40;0.10;;;3.70;99.90;;;;;;5029715;28;20974;-67
2021/12/10 11:03:06;;;;;;;0.67;0.20;;;3.80;99.90;;;;;;5032502;28;20489;-66
2021/12/10 11:05:34;;;;;;;0.50;0.37;;;3.90;99.90;;;;;;5032767;28;20810;-66
2021/12/10 11:08:07;;;;;;;0.40;0.30;;;3.90;99.90;;;;;;5031320;28;20546;-67
2021/12/10 11:10:40;;;;;;;0.87;0.30;;;3.90;99.90;;;;;;5030941;28;20441;-66
2021/12/10 11:13:14;;;;;;;1.63;0.40;;;3.90;99.90;;;;;;5033117;28;20835;-68
2021/12/10 11:15:56;;;;;;;0.60;0.30;;;4.00;99.90;;;;;;5031562;28;20415;-67
2021/12/10 11:18:23;;;;;;;2.07;0.50;;;4.00;99.90;;;;;;5034310;28;20730;-68
2021/12/10 11:20:50;;;;;;;1.43;0.40;;;4.10;99.90;;;;;;5033963;28;20490;-66
2021/12/10 11:23:19;;;;;;;0.50;0.30;;;4.10;99.90;;;;;;5034771;28;20828;-66
2021/12/10 11:25:49;;;;;;;0.43;0.30;;;4.10;99.90;;;;;;5024021;28;20505;-66
2021/12/10 11:28:19;;;;;;;2.10;0.37;;;4.10;99.90;;;;;;5035198;28;20452;-66
2021/12/10 11:30:51;;;;;;;0.40;0.30;;;4.10;99.90;;;;;;5036342;28;20738;-66
2021/12/10 11:33:25;;;;;;;0.50;0.10;;;4.30;99.90;;;;;;5036455;28;20550;-66
2021/12/10 11:35:55;;;;;;;0.40;0.20;;;4.30;99.90;;;;;;5035839;28;20443;-67
2021/12/10 11:38:28;;;;;;;1.27;0.20;;;4.20;99.90;;;;;;5034764;28;20452;-63
2021/12/10 11:40:57;;;;;;;0.30;0.17;;;4.20;99.90;;;;;;5021155;28;20511;-63
2021/12/10 11:49:21;;;;;;;0.30;0.10;;;3.90;99.90;;;;;;4990082;28;20454;-64
2021/12/10 11:51:54;;;;;;;2.03;0.27;;;3.50;99.90;;;;;;4982897;28;20419;-62
2021/12/10 11:54:28;;;;;;;0.30;0.20;;;3.10;99.90;;;;;;5023623;28;20549;-61
2021/12/10 11:57:01;;;;;;;0.30;0.10;;;2.70;99.90;;;;;;5033337;28;20483;-62
2021/12/10 11:59:30;;;;;;;0.20;0.10;;;2.60;99.90;;;;;;5033710;28;20571;-61
2021/12/10 12:02:02;;;;;;;0.30;0.10;;;2.40;99.90;;;;;;5031982;28;20897;-61
2021/12/10 12:04:35;;;;;;;0.50;0.20;;;2.20;99.90;;;;;;5030977;28;20522;-62
2021/12/10 12:07:42;;;;;;;1.30;0.20;;;2.20;99.90;;;;;;5033054;28;20539;-61
2021/12/10 12:10:18;;;;;;;0.50;0.10;;;1.90;99.90;;;;;;5025651;28;20555;-62
2021/12/10 12:12:47;;;;;;;0.40;0.20;;;1.90;99.90;;;;;;5032519;28;20525;-62
2021/12/10 12:15:21;;;;;;;0.40;0.20;;;2.00;99.90;;;;;;5032130;28;20530;-61
2021/12/10 12:17:51;;;;;;;0.60;0.20;;;2.00;99.90;;;;;;5030397;28;20635;-60
2021/12/10 12:20:43;;;;;;;0.30;0.20;;;1.90;99.90;;;;;;5030511;28;20520;-62
2021/12/10 12:26:06;;;;;;;0.70;0.20;;;1.90;99.90;;;;;;5031786;28;20913;-62
2021/12/10 12:28:39;;;;;;;0.60;0.23;;;1.80;99.90;;;;;;5030089;28;20518;-61
2021/12/10 12:31:09;;;;;;;0.30;0.13;;;1.70;99.90;;;;;;5032556;28;20436;-61
2021/12/10 12:33:57;;;;;;;0.40;0.20;;;1.80;99.90;;;;;;5028581;28;21137;-61
2021/12/10 12:36:26;;;;;;;0.50;0.20;;;1.80;99.90;;;;;;5027989;28;20433;-61
2021/12/10 12:38:54;;;;;;;0.90;0.40;;;1.80;99.90;;;;;;5031718;28;20983;-61
2021/12/10 12:41:24;;;;;;;1.37;0.50;;;2.00;99.90;;;;;;5027862;28;21052;-61
2021/12/10 12:44:12;;;;;;;1.33;0.50;;;2.00;99.90;;;;;;5029521;28;20863;-62
2021/12/10 12:46:58;;;;;;;0.67;0.40;;;2.00;99.90;;;;;;5024271;28;20444;-61
2021/12/10 12:49:36;;;;;;;0.40;0.30;;;2.10;99.90;;;;;;5032519;28;20487;-62
2021/12/10 12:52:14;;;;;;;0.90;0.27;;;2.20;99.90;;;;;;5030773;28;20868;-62
2021/12/10 12:55:04;;;;;;;1.67;0.37;;;2.30;99.90;;;;;;5031560;28;20478;-61
2021/12/10 12:57:38;;;;;;;0.73;0.23;;;2.40;99.90;;;;;;5033373;28;20415;-62
2021/12/10 13:00:08;;;;;;;0.60;0.30;;;2.30;99.90;;;;;;5033388;28;20480;-62
2021/12/10 13:02:39;;;;;;;0.40;0.20;;;2.40;99.90;;;;;;5033640;28;20459;-61
2021/12/10 13:05:12;;;;;;;1.53;0.30;;;2.30;99.90;;;;;;5030570;28;20536;-63
2021/12/10 13:07:40;;;;;;;0.70;0.30;;;2.30;99.90;;;;;;5034779;28;20942;-62
2021/12/10 13:10:18;;;;;;;0.50;0.23;;;2.30;99.90;;;;;;5031643;28;20410;-61
2021/12/10 13:12:55;;;;;;;0.70;0.20;;;2.30;99.90;;;;;;5032936;28;20768;-61
2021/12/10 13:15:26;;;;;;;0.60;0.30;;;2.30;99.90;;;;;;5031513;28;20452;-61
2021/12/10 13:17:57;;;;;;;0.87;0.30;;;2.30;99.90;;;;;;5031402;28;20514;-62
2021/12/10 13:20:28;;;;;;;1.47;0.20;;;2.30;99.90;;;;;;5029658;28;21677;-62
2021/12/10 13:23:00;;;;;;;0.70;0.40;;;2.40;99.90;;;;;;5029541;28;20558;-62
2021/12/10 13:25:29;;;;;;;0.70;0.23;;;2.40;99.90;;;;;;5031773;28;20448;-62
2021/12/10 13:28:00;;;;;;;0.57;0.37;;;2.40;99.90;;;;;;5030562;28;21003;-61
2021/12/10 13:30:29;;;;;;;0.60;0.30;;;2.40;99.90;;;;;;5030426;28;20452;-61